sensor_id;sensor_type;location;lat;lon;timestamp;P1;durP1;ratioP1;P2;durP2;ratioP2
30677;SDS011;17437;47.188;8.896;2022-12-05T00:01:23;21.65;;;13.20;;
30677;SDS011;17437;47.188;8.896;2022-12-05T00:03:57;24.00;;;12.93;;
30677;SDS011;17437;47.188;8.896;2022-12-05T00:06:31;32.95;;;12.43;;
30677;SDS011;17437;47.188;8.896;2022-12-05T00:09:04;22.73;;;12.88;;
30677;SDS011;17437;47.188;8.896;2022-12-05T00:11:38;22.50;;;11.85;;
30677;SDS011;17437;47.188;8.896;2022-12-05T00:14:11;22.35;;;11.65;;
30677;SDS011;17437;47.188;8.896;2022-12-05T00:16:43;25.08;;;12.78;;
30677;SDS011;17437;47.188;8.896;2022-12-05T00:19:15;19.27;;;11.05;;
30677;SDS011;17437;47.188;8.896;2022-12-05T00:21:47;21.45;;;10.93;;
30677;SDS011;17437;47.188;8.896;2022-12-05T00:24:19;22.07;;;13.48;;
30677;SDS011;17437;47.188;8.896;2022-12-05T00:26:50;25.27;;;12.35;;
30677;SDS011;17437;47.188;8.896;2022-12-05T00:29:22;22.30;;;14.15;;
30677;SDS011;17437;47.188;8.896;2022-12-05T00:31:53;28.23;;;13.88;;
30677;SDS011;17437;47.188;8.896;2022-12-05T00:34:25;26.97;;;15.03;;
30677;SDS011;17437;47.188;8.896;2022-12-05T00:36:56;27.77;;;15.80;;
30677;SDS011;17437;47.188;8.896;2022-12-05T00:39:28;29.82;;;15.10;;
30677;SDS011;17437;47.188;8.896;2022-12-05T00:42:00;22.77;;;12.98;;
30677;SDS011;17437;47.188;8.896;2022-12-05T00:44:32;29.05;;;15.65;;
30677;SDS011;17437;47.188;8.896;2022-12-05T00:47:03;26.62;;;15.30;;
30677;SDS011;17437;47.188;8.896;2022-12-05T00:49:35;28.35;;;13.35;;
30677;SDS011;17437;47.188;8.896;2022-12-05T00:52:06;37.45;;;20.80;;
30677;SDS011;17437;47.188;8.896;2022-12-05T00:54:38;24.80;;;14.10;;
30677;SDS011;17437;47.188;8.896;2022-12-05T00:57:10;30.30;;;13.43;;
30677;SDS011;17437;47.188;8.896;2022-12-05T00:59:41;23.57;;;13.43;;
30677;SDS011;17437;47.188;8.896;2022-12-05T01:02:12;23.87;;;13.38;;
30677;SDS011;17437;47.188;8.896;2022-12-05T01:04:44;22.17;;;11.68;;
30677;SDS011;17437;47.188;8.896;2022-12-05T01:07:15;26.27;;;13.25;;
30677;SDS011;17437;47.188;8.896;2022-12-05T01:09:47;25.17;;;13.98;;
30677;SDS011;17437;47.188;8.896;2022-12-05T01:12:18;24.32;;;13.45;;
30677;SDS011;17437;47.188;8.896;2022-12-05T01:14:50;23.18;;;12.47;;
30677;SDS011;17437;47.188;8.896;2022-12-05T01:17:22;22.58;;;13.32;;
30677;SDS011;17437;47.188;8.896;2022-12-05T01:19:53;24.15;;;12.93;;
30677;SDS011;17437;47.188;8.896;2022-12-05T01:22:25;23.62;;;15.05;;
30677;SDS011;17437;47.188;8.896;2022-12-05T01:24:56;25.00;;;14.07;;
30677;SDS011;17437;47.188;8.896;2022-12-05T01:27:28;26.45;;;13.22;;
30677;SDS011;17437;47.188;8.896;2022-12-05T01:30:00;26.82;;;15.60;;
30677;SDS011;17437;47.188;8.896;2022-12-05T01:32:31;25.15;;;14.73;;
30677;SDS011;17437;47.188;8.896;2022-12-05T01:35:04;26.02;;;15.38;;
30677;SDS011;17437;47.188;8.896;2022-12-05T01:37:36;26.25;;;14.75;;
30677;SDS011;17437;47.188;8.896;2022-12-05T01:40:09;29.65;;;17.20;;
30677;SDS011;17437;47.188;8.896;2022-12-05T01:42:41;29.02;;;14.10;;
30677;SDS011;17437;47.188;8.896;2022-12-05T01:45:13;28.73;;;15.72;;
30677;SDS011;17437;47.188;8.896;2022-12-05T01:47:47;31.60;;;15.90;;
30677;SDS011;17437;47.188;8.896;2022-12-05T01:50:18;36.15;;;19.17;;
30677;SDS011;17437;47.188;8.896;2022-12-05T01:52:50;29.20;;;14.70;;
30677;SDS011;17437;47.188;8.896;2022-12-05T01:55:21;31.00;;;17.20;;
30677;SDS011;17437;47.188;8.896;2022-12-05T01:57:53;27.65;;;16.62;;
30677;SDS011;17437;47.188;8.896;2022-12-05T02:00:26;33.70;;;16.12;;
30677;SDS011;17437;47.188;8.896;2022-12-05T02:02:58;30.15;;;15.55;;
30677;SDS011;17437;47.188;8.896;2022-12-05T02:05:32;28.90;;;16.25;;
30677;SDS011;17437;47.188;8.896;2022-12-05T02:08:07;31.62;;;17.02;;
30677;SDS011;17437;47.188;8.896;2022-12-05T02:10:40;33.18;;;17.35;;
30677;SDS011;17437;47.188;8.896;2022-12-05T02:13:17;35.03;;;18.75;;
30677;SDS011;17437;47.188;8.896;2022-12-05T02:16:03;34.43;;;17.85;;
30677;SDS011;17437;47.188;8.896;2022-12-05T02:18:40;33.95;;;17.98;;
30677;SDS011;17437;47.188;8.896;2022-12-05T02:21:23;37.03;;;18.90;;
30677;SDS011;17437;47.188;8.896;2022-12-05T02:24:18;39.60;;;20.68;;
30677;SDS011;17437;47.188;8.896;2022-12-05T02:27:22;40.50;;;18.00;;
30677;SDS011;17437;47.188;8.896;2022-12-05T02:30:24;38.28;;;18.12;;
30677;SDS011;17437;47.188;8.896;2022-12-05T02:33:06;42.43;;;19.92;;
30677;SDS011;17437;47.188;8.896;2022-12-05T02:35:43;40.08;;;18.87;;
30677;SDS011;17437;47.188;8.896;2022-12-05T02:38:20;41.18;;;21.20;;
30677;SDS011;17437;47.188;8.896;2022-12-05T02:40:59;34.60;;;19.60;;
30677;SDS011;17437;47.188;8.896;2022-12-05T02:43:36;32.17;;;17.23;;
30677;SDS011;17437;47.188;8.896;2022-12-05T02:46:10;37.85;;;21.00;;
30677;SDS011;17437;47.188;8.896;2022-12-05T02:48:44;32.23;;;16.27;;
30677;SDS011;17437;47.188;8.896;2022-12-05T02:51:19;35.20;;;17.87;;
30677;SDS011;17437;47.188;8.896;2022-12-05T02:53:53;37.35;;;18.48;;
30677;SDS011;17437;47.188;8.896;2022-12-05T02:56:28;35.70;;;18.02;;
30677;SDS011;17437;47.188;8.896;2022-12-05T02:59:01;31.35;;;17.25;;
30677;SDS011;17437;47.188;8.896;2022-12-05T03:01:32;34.27;;;18.90;;
30677;SDS011;17437;47.188;8.896;2022-12-05T03:06:36;36.03;;;19.60;;
30677;SDS011;17437;47.188;8.896;2022-12-05T03:09:18;38.50;;;20.15;;
30677;SDS011;17437;47.188;8.896;2022-12-05T03:11:53;31.75;;;16.45;;
30677;SDS011;17437;47.188;8.896;2022-12-05T03:14:27;37.23;;;19.85;;
30677;SDS011;17437;47.188;8.896;2022-12-05T03:17:02;45.28;;;20.62;;
30677;SDS011;17437;47.188;8.896;2022-12-05T03:19:39;31.75;;;19.07;;
30677;SDS011;17437;47.188;8.896;2022-12-05T03:22:13;36.03;;;15.70;;
30677;SDS011;17437;47.188;8.896;2022-12-05T03:24:46;31.80;;;18.05;;
30677;SDS011;17437;47.188;8.896;2022-12-05T03:27:21;41.77;;;20.92;;
30677;SDS011;17437;47.188;8.896;2022-12-05T03:29:56;32.70;;;18.75;;
30677;SDS011;17437;47.188;8.896;2022-12-05T03:32:31;37.35;;;19.05;;
30677;SDS011;17437;47.188;8.896;2022-12-05T03:35:07;38.28;;;20.43;;
30677;SDS011;17437;47.188;8.896;2022-12-05T03:37:42;33.48;;;18.62;;
30677;SDS011;17437;47.188;8.896;2022-12-05T03:40:20;35.33;;;18.90;;
30677;SDS011;17437;47.188;8.896;2022-12-05T03:42:56;52.58;;;18.80;;
30677;SDS011;17437;47.188;8.896;2022-12-05T03:45:32;38.50;;;17.85;;
30677;SDS011;17437;47.188;8.896;2022-12-05T03:48:08;28.52;;;16.85;;
30677;SDS011;17437;47.188;8.896;2022-12-05T03:50:43;28.00;;;15.23;;
30677;SDS011;17437;47.188;8.896;2022-12-05T03:53:17;27.67;;;16.95;;
30677;SDS011;17437;47.188;8.896;2022-12-05T03:55:53;32.80;;;15.88;;
30677;SDS011;17437;47.188;8.896;2022-12-05T03:58:30;30.23;;;15.98;;
30677;SDS011;17437;47.188;8.896;2022-12-05T04:01:02;38.58;;;17.62;;
30677;SDS011;17437;47.188;8.896;2022-12-05T04:03:36;36.55;;;17.77;;
30677;SDS011;17437;47.188;8.896;2022-12-05T04:06:12;23.85;;;12.65;;
30677;SDS011;17437;47.188;8.896;2022-12-05T04:08:47;28.05;;;15.88;;
30677;SDS011;17437;47.188;8.896;2022-12-05T04:11:21;23.62;;;12.85;;
30677;SDS011;17437;47.188;8.896;2022-12-05T04:13:55;25.50;;;12.47;;
30677;SDS011;17437;47.188;8.896;2022-12-05T04:16:30;23.90;;;9.23;;
30677;SDS011;17437;47.188;8.896;2022-12-05T04:19:22;21.90;;;11.35;;
30677;SDS011;17437;47.188;8.896;2022-12-05T04:21:56;25.50;;;12.45;;
30677;SDS011;17437;47.188;8.896;2022-12-05T04:24:28;32.98;;;18.10;;
30677;SDS011;17437;47.188;8.896;2022-12-05T04:27:21;27.48;;;14.00;;
30677;SDS011;17437;47.188;8.896;2022-12-05T04:29:57;32.78;;;17.73;;
30677;SDS011;17437;47.188;8.896;2022-12-05T04:32:33;27.67;;;15.53;;
30677;SDS011;17437;47.188;8.896;2022-12-05T04:35:10;26.70;;;16.32;;
30677;SDS011;17437;47.188;8.896;2022-12-05T04:37:44;28.65;;;16.48;;
30677;SDS011;17437;47.188;8.896;2022-12-05T04:40:19;28.90;;;15.48;;
30677;SDS011;17437;47.188;8.896;2022-12-05T04:42:53;34.65;;;17.05;;
30677;SDS011;17437;47.188;8.896;2022-12-05T04:45:25;33.80;;;19.20;;
30677;SDS011;17437;47.188;8.896;2022-12-05T04:47:59;33.73;;;16.50;;
30677;SDS011;17437;47.188;8.896;2022-12-05T04:50:33;36.53;;;20.90;;
30677;SDS011;17437;47.188;8.896;2022-12-05T04:53:07;39.83;;;20.92;;
30677;SDS011;17437;47.188;8.896;2022-12-05T04:55:41;38.33;;;18.23;;
30677;SDS011;17437;47.188;8.896;2022-12-05T04:58:16;36.80;;;19.20;;
30677;SDS011;17437;47.188;8.896;2022-12-05T05:00:50;31.35;;;15.40;;
30677;SDS011;17437;47.188;8.896;2022-12-05T05:03:26;33.50;;;15.63;;
30677;SDS011;17437;47.188;8.896;2022-12-05T05:05:59;35.05;;;18.45;;
30677;SDS011;17437;47.188;8.896;2022-12-05T05:08:32;27.32;;;15.20;;
30677;SDS011;17437;47.188;8.896;2022-12-05T05:11:07;27.93;;;14.18;;
30677;SDS011;17437;47.188;8.896;2022-12-05T05:13:40;31.33;;;13.55;;
30677;SDS011;17437;47.188;8.896;2022-12-05T05:16:15;34.78;;;17.27;;
30677;SDS011;17437;47.188;8.896;2022-12-05T05:18:48;31.12;;;17.60;;
30677;SDS011;17437;47.188;8.896;2022-12-05T05:21:22;39.05;;;18.95;;
30677;SDS011;17437;47.188;8.896;2022-12-05T05:23:54;26.90;;;14.65;;
30677;SDS011;17437;47.188;8.896;2022-12-05T05:26:27;28.45;;;16.32;;
30677;SDS011;17437;47.188;8.896;2022-12-05T05:28:59;31.10;;;17.37;;
30677;SDS011;17437;47.188;8.896;2022-12-05T05:31:31;43.50;;;19.80;;
30677;SDS011;17437;47.188;8.896;2022-12-05T05:34:03;36.17;;;18.77;;
30677;SDS011;17437;47.188;8.896;2022-12-05T05:36:37;32.53;;;16.35;;
30677;SDS011;17437;47.188;8.896;2022-12-05T05:39:10;32.98;;;15.95;;
30677;SDS011;17437;47.188;8.896;2022-12-05T05:41:44;26.33;;;12.90;;
30677;SDS011;17437;47.188;8.896;2022-12-05T05:44:15;24.20;;;13.00;;
30677;SDS011;17437;47.188;8.896;2022-12-05T05:46:47;24.67;;;11.73;;
30677;SDS011;17437;47.188;8.896;2022-12-05T05:49:18;22.75;;;9.55;;
30677;SDS011;17437;47.188;8.896;2022-12-05T05:51:49;23.30;;;13.80;;
30677;SDS011;17437;47.188;8.896;2022-12-05T05:54:20;8.75;;;5.12;;
30677;SDS011;17437;47.188;8.896;2022-12-05T05:56:52;4.20;;;2.90;;
30677;SDS011;17437;47.188;8.896;2022-12-05T05:59:23;6.65;;;3.12;;
30677;SDS011;17437;47.188;8.896;2022-12-05T06:01:54;5.08;;;2.95;;
30677;SDS011;17437;47.188;8.896;2022-12-05T06:06:55;7.03;;;3.95;;
30677;SDS011;17437;47.188;8.896;2022-12-05T06:09:27;7.28;;;4.00;;
30677;SDS011;17437;47.188;8.896;2022-12-05T06:11:58;3.87;;;2.90;;
30677;SDS011;17437;47.188;8.896;2022-12-05T06:14:29;6.97;;;3.72;;
30677;SDS011;17437;47.188;8.896;2022-12-05T06:17:01;6.05;;;3.95;;
30677;SDS011;17437;47.188;8.896;2022-12-05T06:19:33;3.42;;;1.92;;
30677;SDS011;17437;47.188;8.896;2022-12-05T06:22:04;5.45;;;2.62;;
30677;SDS011;17437;47.188;8.896;2022-12-05T06:24:36;4.78;;;2.77;;
30677;SDS011;17437;47.188;8.896;2022-12-05T06:27:07;4.08;;;2.37;;
30677;SDS011;17437;47.188;8.896;2022-12-05T06:29:38;2.75;;;2.20;;
30677;SDS011;17437;47.188;8.896;2022-12-05T06:32:10;3.45;;;1.92;;
30677;SDS011;17437;47.188;8.896;2022-12-05T06:34:41;2.75;;;2.20;;
30677;SDS011;17437;47.188;8.896;2022-12-05T06:37:13;10.15;;;6.42;;
30677;SDS011;17437;47.188;8.896;2022-12-05T06:39:44;4.87;;;2.83;;
30677;SDS011;17437;47.188;8.896;2022-12-05T06:45:08;4.03;;;2.98;;
30677;SDS011;17437;47.188;8.896;2022-12-05T06:47:40;7.12;;;3.45;;
30677;SDS011;17437;47.188;8.896;2022-12-05T06:50:12;7.62;;;4.28;;
30677;SDS011;17437;47.188;8.896;2022-12-05T06:52:43;8.15;;;3.75;;
30677;SDS011;17437;47.188;8.896;2022-12-05T06:55:15;4.85;;;3.25;;
30677;SDS011;17437;47.188;8.896;2022-12-05T06:57:59;5.55;;;3.55;;
30677;SDS011;17437;47.188;8.896;2022-12-05T07:00:31;12.03;;;5.35;;
30677;SDS011;17437;47.188;8.896;2022-12-05T07:03:21;16.62;;;8.75;;
30677;SDS011;17437;47.188;8.896;2022-12-05T07:05:52;14.43;;;9.10;;
30677;SDS011;17437;47.188;8.896;2022-12-05T07:08:23;17.37;;;7.90;;
30677;SDS011;17437;47.188;8.896;2022-12-05T07:10:55;22.85;;;10.35;;
30677;SDS011;17437;47.188;8.896;2022-12-05T07:13:26;23.07;;;12.15;;
30677;SDS011;17437;47.188;8.896;2022-12-05T07:15:58;24.75;;;14.10;;
30677;SDS011;17437;47.188;8.896;2022-12-05T07:18:30;28.12;;;13.30;;
30677;SDS011;17437;47.188;8.896;2022-12-05T07:21:03;29.25;;;16.42;;
30677;SDS011;17437;47.188;8.896;2022-12-05T07:23:38;31.65;;;16.52;;
30677;SDS011;17437;47.188;8.896;2022-12-05T07:26:11;27.02;;;14.80;;
30677;SDS011;17437;47.188;8.896;2022-12-05T07:28:45;28.60;;;13.22;;
30677;SDS011;17437;47.188;8.896;2022-12-05T07:31:19;31.60;;;15.10;;
30677;SDS011;17437;47.188;8.896;2022-12-05T07:33:51;17.55;;;12.23;;
30677;SDS011;17437;47.188;8.896;2022-12-05T07:36:22;19.50;;;9.78;;
30677;SDS011;17437;47.188;8.896;2022-12-05T07:38:54;21.27;;;9.43;;
30677;SDS011;17437;47.188;8.896;2022-12-05T07:41:27;14.75;;;8.80;;
30677;SDS011;17437;47.188;8.896;2022-12-05T07:44:00;22.22;;;10.95;;
30677;SDS011;17437;47.188;8.896;2022-12-05T07:46:31;19.35;;;13.08;;
30677;SDS011;17437;47.188;8.896;2022-12-05T07:49:02;22.95;;;10.58;;
30677;SDS011;17437;47.188;8.896;2022-12-05T07:51:38;25.15;;;12.95;;
30677;SDS011;17437;47.188;8.896;2022-12-05T07:54:09;17.30;;;9.63;;
30677;SDS011;17437;47.188;8.896;2022-12-05T07:56:46;3.42;;;2.22;;
30677;SDS011;17437;47.188;8.896;2022-12-05T07:59:17;4.53;;;3.00;;
30677;SDS011;17437;47.188;8.896;2022-12-05T08:01:51;4.30;;;2.30;;
30677;SDS011;17437;47.188;8.896;2022-12-05T08:04:22;7.90;;;4.83;;
30677;SDS011;17437;47.188;8.896;2022-12-05T08:06:54;6.45;;;4.17;;
30677;SDS011;17437;47.188;8.896;2022-12-05T08:09:26;2.98;;;2.20;;
30677;SDS011;17437;47.188;8.896;2022-12-05T08:11:57;3.20;;;2.08;;
30677;SDS011;17437;47.188;8.896;2022-12-05T08:14:28;4.33;;;2.30;;
30677;SDS011;17437;47.188;8.896;2022-12-05T08:17:00;8.00;;;4.08;;
30677;SDS011;17437;47.188;8.896;2022-12-05T08:19:33;4.53;;;2.42;;
30677;SDS011;17437;47.188;8.896;2022-12-05T08:22:05;6.30;;;3.52;;
30677;SDS011;17437;47.188;8.896;2022-12-05T08:24:36;4.67;;;3.00;;
30677;SDS011;17437;47.188;8.896;2022-12-05T08:27:08;3.45;;;2.42;;
30677;SDS011;17437;47.188;8.896;2022-12-05T08:29:39;4.45;;;3.00;;
30677;SDS011;17437;47.188;8.896;2022-12-05T08:32:10;7.17;;;3.08;;
30677;SDS011;17437;47.188;8.896;2022-12-05T08:34:41;2.87;;;2.45;;
30677;SDS011;17437;47.188;8.896;2022-12-05T08:37:13;9.63;;;2.65;;
30677;SDS011;17437;47.188;8.896;2022-12-05T08:42:14;2.62;;;1.70;;
30677;SDS011;17437;47.188;8.896;2022-12-05T08:44:45;5.25;;;1.98;;
30677;SDS011;17437;47.188;8.896;2022-12-05T08:47:18;3.40;;;1.95;;
30677;SDS011;17437;47.188;8.896;2022-12-05T08:49:49;13.50;;;8.83;;
30677;SDS011;17437;47.188;8.896;2022-12-05T08:52:21;3.67;;;2.50;;
30677;SDS011;17437;47.188;8.896;2022-12-05T08:54:52;3.25;;;2.17;;
30677;SDS011;17437;47.188;8.896;2022-12-05T08:57:24;2.12;;;1.65;;
30677;SDS011;17437;47.188;8.896;2022-12-05T09:02:26;3.00;;;1.57;;
30677;SDS011;17437;47.188;8.896;2022-12-05T09:04:57;1.45;;;1.00;;
30677;SDS011;17437;47.188;8.896;2022-12-05T09:07:30;1.67;;;0.80;;
30677;SDS011;17437;47.188;8.896;2022-12-05T09:10:02;1.80;;;0.90;;
30677;SDS011;17437;47.188;8.896;2022-12-05T09:12:35;3.00;;;1.25;;
30677;SDS011;17437;47.188;8.896;2022-12-05T09:15:07;1.55;;;1.45;;
30677;SDS011;17437;47.188;8.896;2022-12-05T09:17:40;4.55;;;1.82;;
30677;SDS011;17437;47.188;8.896;2022-12-05T09:20:13;2.20;;;1.22;;
30677;SDS011;17437;47.188;8.896;2022-12-05T09:22:44;1.47;;;0.95;;
30677;SDS011;17437;47.188;8.896;2022-12-05T09:25:15;3.80;;;1.25;;
30677;SDS011;17437;47.188;8.896;2022-12-05T09:27:49;38.63;;;23.12;;
30677;SDS011;17437;47.188;8.896;2022-12-05T09:30:22;0.72;;;0.65;;
30677;SDS011;17437;47.188;8.896;2022-12-05T09:32:54;2.35;;;1.27;;
30677;SDS011;17437;47.188;8.896;2022-12-05T09:35:25;6.53;;;2.30;;
30677;SDS011;17437;47.188;8.896;2022-12-05T09:38:02;2.85;;;1.27;;
30677;SDS011;17437;47.188;8.896;2022-12-05T09:43:18;4.80;;;1.85;;
30677;SDS011;17437;47.188;8.896;2022-12-05T09:45:55;5.85;;;1.50;;
30677;SDS011;17437;47.188;8.896;2022-12-05T09:48:29;3.90;;;2.30;;
30677;SDS011;17437;47.188;8.896;2022-12-05T09:51:01;2.72;;;1.57;;
30677;SDS011;17437;47.188;8.896;2022-12-05T09:53:34;2.83;;;1.60;;
30677;SDS011;17437;47.188;8.896;2022-12-05T09:56:11;2.27;;;1.50;;
30677;SDS011;17437;47.188;8.896;2022-12-05T09:58:45;1.60;;;1.05;;
30677;SDS011;17437;47.188;8.896;2022-12-05T10:01:24;1.75;;;0.80;;
30677;SDS011;17437;47.188;8.896;2022-12-05T10:04:06;1.37;;;0.60;;
30677;SDS011;17437;47.188;8.896;2022-12-05T10:06:49;1.50;;;0.98;;
30677;SDS011;17437;47.188;8.896;2022-12-05T10:09:37;1.25;;;1.00;;
30677;SDS011;17437;47.188;8.896;2022-12-05T10:12:19;2.85;;;1.45;;
30677;SDS011;17437;47.188;8.896;2022-12-05T10:14:56;2.12;;;1.70;;
30677;SDS011;17437;47.188;8.896;2022-12-05T10:17:30;1.67;;;0.90;;
30677;SDS011;17437;47.188;8.896;2022-12-05T10:20:08;1.60;;;1.17;;
30677;SDS011;17437;47.188;8.896;2022-12-05T10:22:43;2.45;;;1.45;;
30677;SDS011;17437;47.188;8.896;2022-12-05T10:25:17;2.37;;;1.57;;
30677;SDS011;17437;47.188;8.896;2022-12-05T10:27:51;1.92;;;1.25;;
30677;SDS011;17437;47.188;8.896;2022-12-05T10:30:26;4.25;;;1.57;;
30677;SDS011;17437;47.188;8.896;2022-12-05T10:33:00;5.37;;;2.83;;
30677;SDS011;17437;47.188;8.896;2022-12-05T10:35:40;1.17;;;1.05;;
30677;SDS011;17437;47.188;8.896;2022-12-05T10:38:16;1.95;;;1.32;;
30677;SDS011;17437;47.188;8.896;2022-12-05T10:40:50;1.15;;;1.07;;
30677;SDS011;17437;47.188;8.896;2022-12-05T10:43:28;1.77;;;1.37;;
30677;SDS011;17437;47.188;8.896;2022-12-05T10:46:02;3.50;;;1.30;;
30677;SDS011;17437;47.188;8.896;2022-12-05T10:48:39;2.02;;;1.40;;
30677;SDS011;17437;47.188;8.896;2022-12-05T10:51:13;2.33;;;1.67;;
30677;SDS011;17437;47.188;8.896;2022-12-05T10:53:47;1.40;;;1.30;;
30677;SDS011;17437;47.188;8.896;2022-12-05T10:56:43;2.52;;;1.20;;
30677;SDS011;17437;47.188;8.896;2022-12-05T10:59:18;1.20;;;1.10;;
30677;SDS011;17437;47.188;8.896;2022-12-05T11:01:54;1.65;;;0.80;;
30677;SDS011;17437;47.188;8.896;2022-12-05T11:04:29;41.75;;;21.62;;
30677;SDS011;17437;47.188;8.896;2022-12-05T11:07:20;4.33;;;1.85;;
30677;SDS011;17437;47.188;8.896;2022-12-05T11:09:52;1.17;;;0.93;;
30677;SDS011;17437;47.188;8.896;2022-12-05T11:12:29;3.05;;;0.80;;
30677;SDS011;17437;47.188;8.896;2022-12-05T11:15:19;2.22;;;1.20;;
30677;SDS011;17437;47.188;8.896;2022-12-05T11:17:54;1.67;;;1.12;;
30677;SDS011;17437;47.188;8.896;2022-12-05T11:20:42;1.57;;;1.30;;
30677;SDS011;17437;47.188;8.896;2022-12-05T11:23:21;2.02;;;1.10;;
30677;SDS011;17437;47.188;8.896;2022-12-05T11:25:54;2.22;;;1.00;;
30677;SDS011;17437;47.188;8.896;2022-12-05T11:28:32;1.77;;;1.55;;
30677;SDS011;17437;47.188;8.896;2022-12-05T11:31:20;1.10;;;0.98;;
30677;SDS011;17437;47.188;8.896;2022-12-05T11:34:00;1.32;;;1.17;;
30677;SDS011;17437;47.188;8.896;2022-12-05T11:36:42;2.83;;;1.92;;
30677;SDS011;17437;47.188;8.896;2022-12-05T11:39:18;3.98;;;2.10;;
30677;SDS011;17437;47.188;8.896;2022-12-05T11:45:11;1.55;;;1.00;;
30677;SDS011;17437;47.188;8.896;2022-12-05T11:47:51;2.37;;;1.17;;
30677;SDS011;17437;47.188;8.896;2022-12-05T11:50:40;1.27;;;1.17;;
30677;SDS011;17437;47.188;8.896;2022-12-05T11:53:28;1.60;;;0.68;;
30677;SDS011;17437;47.188;8.896;2022-12-05T11:56:12;1.17;;;0.90;;
30677;SDS011;17437;47.188;8.896;2022-12-05T11:58:52;4.67;;;1.30;;
30677;SDS011;17437;47.188;8.896;2022-12-05T12:01:35;1.37;;;1.12;;
30677;SDS011;17437;47.188;8.896;2022-12-05T12:04:35;1.92;;;0.93;;
30677;SDS011;17437;47.188;8.896;2022-12-05T12:07:18;2.67;;;1.55;;
30677;SDS011;17437;47.188;8.896;2022-12-05T12:10:00;1.62;;;1.15;;
30677;SDS011;17437;47.188;8.896;2022-12-05T12:12:38;1.60;;;1.50;;
30677;SDS011;17437;47.188;8.896;2022-12-05T12:15:31;1.20;;;1.10;;
30677;SDS011;17437;47.188;8.896;2022-12-05T12:18:15;6.58;;;2.58;;
30677;SDS011;17437;47.188;8.896;2022-12-05T12:20:54;7.55;;;2.72;;
30677;SDS011;17437;47.188;8.896;2022-12-05T12:23:35;2.95;;;2.15;;
30677;SDS011;17437;47.188;8.896;2022-12-05T12:26:11;2.58;;;1.55;;
30677;SDS011;17437;47.188;8.896;2022-12-05T12:28:49;1.95;;;1.30;;
30677;SDS011;17437;47.188;8.896;2022-12-05T12:31:30;1.62;;;1.52;;
30677;SDS011;17437;47.188;8.896;2022-12-05T12:34:20;2.95;;;1.50;;
30677;SDS011;17437;47.188;8.896;2022-12-05T12:37:13;3.80;;;2.45;;
30677;SDS011;17437;47.188;8.896;2022-12-05T12:39:49;2.10;;;1.57;;
30677;SDS011;17437;47.188;8.896;2022-12-05T12:42:40;3.55;;;2.67;;
30677;SDS011;17437;47.188;8.896;2022-12-05T12:45:34;4.67;;;2.90;;
30677;SDS011;17437;47.188;8.896;2022-12-05T12:51:16;2.40;;;1.37;;
30677;SDS011;17437;47.188;8.896;2022-12-05T12:53:54;4.22;;;2.50;;
30677;SDS011;17437;47.188;8.896;2022-12-05T12:56:36;2.00;;;1.30;;
30677;SDS011;17437;47.188;8.896;2022-12-05T12:59:17;2.77;;;2.40;;
30677;SDS011;17437;47.188;8.896;2022-12-05T13:02:01;3.90;;;1.70;;
30677;SDS011;17437;47.188;8.896;2022-12-05T13:04:45;2.33;;;1.30;;
30677;SDS011;17437;47.188;8.896;2022-12-05T13:07:11;2.40;;;1.70;;
30677;SDS011;17437;47.188;8.896;2022-12-05T13:09:46;2.20;;;1.77;;
30677;SDS011;17437;47.188;8.896;2022-12-05T13:12:22;3.37;;;1.75;;
30677;SDS011;17437;47.188;8.896;2022-12-05T13:14:59;1.62;;;1.12;;
30677;SDS011;17437;47.188;8.896;2022-12-05T13:17:33;2.40;;;1.75;;
30677;SDS011;17437;47.188;8.896;2022-12-05T13:20:09;3.42;;;1.75;;
30677;SDS011;17437;47.188;8.896;2022-12-05T13:22:45;2.02;;;1.50;;
30677;SDS011;17437;47.188;8.896;2022-12-05T13:25:31;2.30;;;1.60;;
30677;SDS011;17437;47.188;8.896;2022-12-05T13:27:56;2.17;;;1.40;;
30677;SDS011;17437;47.188;8.896;2022-12-05T13:30:29;3.30;;;2.00;;
30677;SDS011;17437;47.188;8.896;2022-12-05T13:33:07;3.15;;;1.98;;
30677;SDS011;17437;47.188;8.896;2022-12-05T13:35:38;4.75;;;2.10;;
30677;SDS011;17437;47.188;8.896;2022-12-05T13:38:28;2.02;;;1.22;;
30677;SDS011;17437;47.188;8.896;2022-12-05T13:41:18;3.70;;;1.45;;
30677;SDS011;17437;47.188;8.896;2022-12-05T13:44:07;2.45;;;1.05;;
30677;SDS011;17437;47.188;8.896;2022-12-05T13:46:40;3.60;;;0.90;;
30677;SDS011;17437;47.188;8.896;2022-12-05T13:49:15;3.17;;;1.82;;
30677;SDS011;17437;47.188;8.896;2022-12-05T13:51:47;2.52;;;1.62;;
30677;SDS011;17437;47.188;8.896;2022-12-05T13:54:20;1.47;;;1.15;;
30677;SDS011;17437;47.188;8.896;2022-12-05T13:56:55;4.45;;;1.85;;
30677;SDS011;17437;47.188;8.896;2022-12-05T14:05:36;2.08;;;1.42;;
30677;SDS011;17437;47.188;8.896;2022-12-05T14:11:29;1.05;;;0.90;;
30677;SDS011;17437;47.188;8.896;2022-12-05T14:14:01;2.30;;;1.45;;
30677;SDS011;17437;47.188;8.896;2022-12-05T14:16:39;4.03;;;1.47;;
30677;SDS011;17437;47.188;8.896;2022-12-05T14:19:33;4.12;;;3.20;;
30677;SDS011;17437;47.188;8.896;2022-12-05T14:22:28;1.30;;;1.17;;
30677;SDS011;17437;47.188;8.896;2022-12-05T14:25:08;2.30;;;1.65;;
30677;SDS011;17437;47.188;8.896;2022-12-05T14:27:45;1.87;;;1.25;;
30677;SDS011;17437;47.188;8.896;2022-12-05T14:30:22;6.85;;;1.62;;
30677;SDS011;17437;47.188;8.896;2022-12-05T14:32:59;4.30;;;1.70;;
30677;SDS011;17437;47.188;8.896;2022-12-05T14:35:47;3.60;;;1.90;;
30677;SDS011;17437;47.188;8.896;2022-12-05T14:38:22;4.87;;;1.72;;
30677;SDS011;17437;47.188;8.896;2022-12-05T14:41:10;6.92;;;2.10;;
30677;SDS011;17437;47.188;8.896;2022-12-05T14:43:49;3.52;;;2.02;;
30677;SDS011;17437;47.188;8.896;2022-12-05T14:46:22;2.33;;;1.25;;
30677;SDS011;17437;47.188;8.896;2022-12-05T14:48:55;2.72;;;1.00;;
30677;SDS011;17437;47.188;8.896;2022-12-05T14:51:42;3.60;;;1.35;;
30677;SDS011;17437;47.188;8.896;2022-12-05T14:54:16;1.72;;;1.17;;
30677;SDS011;17437;47.188;8.896;2022-12-05T14:56:49;2.55;;;1.10;;
30677;SDS011;17437;47.188;8.896;2022-12-05T14:59:23;1.70;;;1.55;;
30677;SDS011;17437;47.188;8.896;2022-12-05T15:01:58;8.15;;;2.55;;
30677;SDS011;17437;47.188;8.896;2022-12-05T15:04:33;5.58;;;1.82;;
30677;SDS011;17437;47.188;8.896;2022-12-05T15:07:19;2.35;;;1.95;;
30677;SDS011;17437;47.188;8.896;2022-12-05T15:09:55;4.95;;;1.75;;
30677;SDS011;17437;47.188;8.896;2022-12-05T15:12:31;1.70;;;1.27;;
30677;SDS011;17437;47.188;8.896;2022-12-05T15:15:06;2.00;;;1.12;;
30677;SDS011;17437;47.188;8.896;2022-12-05T15:17:47;5.35;;;1.50;;
30677;SDS011;17437;47.188;8.896;2022-12-05T15:20:23;2.40;;;2.20;;
30677;SDS011;17437;47.188;8.896;2022-12-05T15:22:57;1.72;;;1.47;;
30677;SDS011;17437;47.188;8.896;2022-12-05T15:25:29;2.67;;;1.65;;
30677;SDS011;17437;47.188;8.896;2022-12-05T15:28:03;2.35;;;1.20;;
30677;SDS011;17437;47.188;8.896;2022-12-05T15:30:37;2.85;;;1.95;;
30677;SDS011;17437;47.188;8.896;2022-12-05T15:33:11;1.50;;;1.40;;
30677;SDS011;17437;47.188;8.896;2022-12-05T15:35:42;1.50;;;1.25;;
30677;SDS011;17437;47.188;8.896;2022-12-05T15:38:23;2.52;;;2.20;;
30677;SDS011;17437;47.188;8.896;2022-12-05T15:41:14;4.20;;;2.25;;
30677;SDS011;17437;47.188;8.896;2022-12-05T15:43:54;4.45;;;2.40;;
30677;SDS011;17437;47.188;8.896;2022-12-05T15:46:28;5.20;;;2.33;;
30677;SDS011;17437;47.188;8.896;2022-12-05T15:49:01;4.85;;;3.98;;
30677;SDS011;17437;47.188;8.896;2022-12-05T15:51:45;3.40;;;3.00;;
30677;SDS011;17437;47.188;8.896;2022-12-05T15:54:19;5.20;;;3.47;;
30677;SDS011;17437;47.188;8.896;2022-12-05T15:56:57;4.47;;;3.30;;